Floris, IA (52560)

20:22 CST le 02 décembre 2016 (GMT -0600)
Ottumwa | | Change Station

Alt. 675 ft 41.00 °N, 92.44 °W | Updated 16 seconds ago

Overcast
Couvert
39.4 ° F
Paraît 39 ° F
N
0.0
Vent Variable Vent de NNO
Gusts 0.0 mph

Aujourd'hui
Haut(e) -- | Bas -- ° F
--% Risque de précip.
Hier
Haut(e) -- | Bas -- ° F
Precip. -- pouce
Pression 30.36 pouce
Visibilité 10.0 Miles terrestres
Nuages Couvert 3800 ft
Refroidissement éolien 39 ° F
Point de rosée 30 ° F
Humidité 68%
Précipitations 0.00 pouce
Profondeur de la couche neigeuse Non disponible.
7:15 AM 4:41 PM
Lune montante, 12% visible
METAR KOTM 030153Z AUTO 05003KT 10SM OVC038 03/M01 A3034 RMK AO2 SLP280 T00331011
Pression 30.36 pouce
Visibilité 10.0 Miles terrestres
Nuages Couvert 3800 ft
Refroidissement éolien 39 ° F
Point de rosée 30 ° F
Humidité 68%
Précipitations 0.00 pouce
Profondeur de la couche neigeuse Non disponible.
7:15 AM 4:41 PM
Lune montante, 12% visible
METAR KOTM 030153Z AUTO 05003KT 10SM OVC038 03/M01 A3034 RMK AO2 SLP280 T00331011

10-Day Weather Forecast

Almanac

Astronomie

Dec. 02, 2016 Lever Coucher
Temps réel
Crépuscule civil
Crépuscule nautique
Crépuscule astronomique
Lune
Durée de lumière visible
Longueur du jour
Tomorrow will be .
, % of the Moon is Illuminated

Extrêmes aujourd'hui

State Highs State Lows

Community

WunderPhotos

Upload Photos

1,955,396 Photos téléchargées !

WunderBlog® & News

Nearby

Qualité de l'air

  Qualité de l'air Indice de la qualité de l'air Polluant
Not available.

Épaisseur de neige

Station Depth Altitude

Activité sismique

Ville Distance Mag. Time & Date
Minimum magnitude displayed is 2.5.

Températures des eaux côtières

Lieu Température

Stations

Stations météo à proximité

Emplacement de la station Température Refroidissement éolien Point de rosée Humidité Vent Precip. Alt. Mise à jour Type
                   

Watches & Warnings

There are currently no watches in effect.